createdAt,value
2017-07-12T00:00:41.332Z,67.20
2017-07-12T00:03:08.377Z,67.20
2017-07-12T00:05:34.494Z,67.50
2017-07-12T00:08:00.618Z,67.10
2017-07-12T00:10:27.505Z,67.40
2017-07-12T00:12:53.625Z,67.40
2017-07-12T00:15:19.734Z,67.10
2017-07-12T00:17:46.610Z,67.10
2017-07-12T00:20:12.729Z,67.00
2017-07-12T00:22:38.849Z,67.10
2017-07-12T00:25:05.905Z,67.00
2017-07-12T00:27:32.044Z,66.90
2017-07-12T00:29:58.153Z,66.90
2017-07-12T00:32:25.401Z,66.30
2017-07-12T00:34:51.493Z,66.70
2017-07-12T00:37:17.608Z,66.60
2017-07-12T00:39:43.745Z,66.60
2017-07-12T00:42:09.865Z,66.50
2017-07-12T00:44:37.453Z,66.40
2017-07-12T00:47:04.061Z,66.40
2017-07-12T00:49:30.172Z,66.30
2017-07-12T00:51:57.030Z,66.90
2017-07-12T00:54:25.095Z,66.20
2017-07-12T00:56:51.231Z,66.10
2017-07-12T00:59:17.339Z,66.10
2017-07-12T01:01:43.467Z,66.10
2017-07-12T01:04:09.588Z,66.10
2017-07-12T01:06:35.681Z,66.00
2017-07-12T01:09:01.881Z,65.90
2017-07-12T01:11:28.004Z,66.00
2017-07-12T01:13:54.113Z,65.80
2017-07-12T01:16:20.231Z,65.70
2017-07-12T01:18:46.994Z,65.70
2017-07-12T01:21:13.124Z,65.70
2017-07-12T01:23:39.269Z,65.60
2017-07-12T01:26:05.380Z,65.60
2017-07-12T01:28:31.519Z,65.60
2017-07-12T01:33:29.881Z,65.50
2017-07-12T01:35:56.024Z,65.40
2017-07-12T01:38:22.134Z,65.40
2017-07-12T01:40:49.198Z,65.40
2017-07-12T01:43:16.046Z,65.40
2017-07-12T01:45:43.550Z,65.30
2017-07-12T01:48:09.678Z,65.30
2017-07-12T01:50:35.802Z,65.30
2017-07-12T01:53:01.935Z,65.30
2017-07-12T01:55:29.405Z,65.20
2017-07-12T01:57:55.513Z,65.20
2017-07-12T02:00:21.618Z,65.20
2017-07-12T02:02:48.476Z,65.20
2017-07-12T02:05:15.339Z,65.10
2017-07-12T02:07:41.445Z,65.00
2017-07-12T02:10:08.345Z,65.80
2017-07-12T02:12:34.465Z,65.10
2017-07-12T02:15:00.582Z,65.10
2017-07-12T02:17:28.351Z,65.10
2017-07-12T02:19:54.477Z,64.90
2017-07-12T02:22:21.333Z,64.90
2017-07-12T02:24:50.747Z,65.00
2017-07-12T02:27:16.864Z,65.00
2017-07-12T02:29:49.974Z,64.80
2017-07-12T02:32:16.079Z,64.80
2017-07-12T02:34:42.934Z,64.80
2017-07-12T02:37:11.331Z,64.80
2017-07-12T02:39:37.441Z,64.80
2017-07-12T02:42:05.401Z,65.30
2017-07-12T02:44:32.381Z,64.70
2017-07-12T02:47:00.701Z,64.80
2017-07-12T02:49:26.838Z,64.70
2017-07-12T02:51:54.670Z,64.70
2017-07-12T02:54:20.785Z,64.70
2017-07-12T02:56:55.438Z,65.00
2017-07-12T02:59:22.978Z,64.70
2017-07-12T03:01:49.839Z,64.60
2017-07-12T03:04:16.707Z,64.60
2017-07-12T03:06:42.860Z,64.60
2017-07-12T03:09:08.993Z,64.60
2017-07-12T03:11:36.013Z,64.60
2017-07-12T03:14:02.113Z,64.60
2017-07-12T03:16:28.999Z,64.90
2017-07-12T03:18:57.057Z,64.50
2017-07-12T03:21:23.918Z,64.50
2017-07-12T03:23:50.038Z,64.50
2017-07-12T03:26:16.935Z,64.50
2017-07-12T03:28:43.093Z,64.50
2017-07-12T03:31:09.218Z,64.50
2017-07-12T03:33:35.347Z,64.40
2017-07-12T03:36:01.459Z,64.50
2017-07-12T03:38:33.970Z,64.40
2017-07-12T03:41:00.097Z,64.40
2017-07-12T03:43:26.228Z,64.50
2017-07-12T03:45:52.360Z,64.40
2017-07-12T03:48:21.465Z,64.40
2017-07-12T03:50:47.587Z,64.40
2017-07-12T03:53:14.574Z,65.10
2017-07-12T03:55:41.426Z,64.40
2017-07-12T03:58:12.374Z,65.10
2017-07-12T04:00:39.338Z,64.40
2017-07-12T04:03:05.478Z,64.40
2017-07-12T04:05:31.589Z,64.40
2017-07-12T04:07:57.727Z,64.40
2017-07-12T04:10:23.848Z,64.40
2017-07-12T04:12:50.725Z,64.30
2017-07-12T04:15:16.870Z,64.30
2017-07-12T04:17:42.981Z,64.30
2017-07-12T04:20:09.098Z,64.30
2017-07-12T04:22:36.757Z,64.30
2017-07-12T04:25:03.653Z,64.30
2017-07-12T04:27:29.762Z,64.20
2017-07-12T04:29:55.889Z,64.20
2017-07-12T04:32:21.993Z,64.30
2017-07-12T04:34:48.108Z,64.20
2017-07-12T04:37:14.253Z,64.20
2017-07-12T04:39:40.360Z,64.20
2017-07-12T04:42:06.455Z,64.20
2017-07-12T04:44:32.626Z,64.20
2017-07-12T04:46:58.731Z,64.20
2017-07-12T04:49:26.965Z,64.20
2017-07-12T04:51:53.072Z,64.20
2017-07-12T04:54:19.201Z,64.20
2017-07-12T04:56:45.319Z,64.20
2017-07-12T04:59:13.520Z,64.20
2017-07-12T05:01:40.406Z,64.20
2017-07-12T05:04:06.522Z,64.10
2017-07-12T05:06:32.675Z,64.20
2017-07-12T05:08:58.808Z,64.20
2017-07-12T05:11:24.922Z,64.10
2017-07-12T05:13:51.989Z,64.20
2017-07-12T05:16:18.833Z,64.20
2017-07-12T05:18:45.703Z,64.20
2017-07-12T05:21:12.036Z,64.70
2017-07-12T05:23:38.177Z,64.10
2017-07-12T05:26:04.333Z,64.10
2017-07-12T05:28:30.826Z,64.20
2017-07-12T05:30:57.695Z,64.10
2017-07-12T05:33:23.819Z,64.00
2017-07-12T05:35:49.954Z,64.10
2017-07-12T05:38:16.074Z,64.10
2017-07-12T05:40:42.930Z,64.10
2017-07-12T05:43:09.204Z,64.00
2017-07-12T05:45:35.355Z,64.00
2017-07-12T05:48:01.454Z,64.10
2017-07-12T05:50:29.092Z,64.10
2017-07-12T05:52:55.933Z,64.10
2017-07-12T05:55:22.779Z,64.10
2017-07-12T05:57:49.658Z,64.00
2017-07-12T06:00:29.198Z,64.00
2017-07-12T06:02:57.017Z,64.00
2017-07-12T06:05:23.898Z,64.30
2017-07-12T06:07:50.042Z,64.00
2017-07-12T06:10:16.246Z,64.00
2017-07-12T06:12:43.129Z,64.00
2017-07-12T06:15:10.221Z,63.90
2017-07-12T06:17:36.338Z,63.90
2017-07-12T06:20:02.436Z,64.10
2017-07-12T06:22:28.556Z,64.00
2017-07-12T06:24:55.609Z,64.00
2017-07-12T06:27:23.797Z,63.90
2017-07-12T06:29:50.178Z,64.00
2017-07-12T06:32:16.662Z,64.00
2017-07-12T06:34:43.539Z,63.90
2017-07-12T06:37:09.662Z,64.00
2017-07-12T06:39:35.803Z,64.00
2017-07-12T06:42:01.931Z,63.90
2017-07-12T06:44:28.050Z,63.90
2017-07-12T06:46:54.189Z,63.90
2017-07-12T06:49:20.326Z,64.00
2017-07-12T06:51:47.858Z,63.90
2017-07-12T06:54:15.137Z,64.00
2017-07-12T06:56:41.266Z,63.90
2017-07-12T06:59:07.377Z,64.00
2017-07-12T07:01:34.248Z,63.90
2017-07-12T07:04:01.061Z,63.90
2017-07-12T07:06:27.183Z,64.00
2017-07-12T07:08:53.340Z,63.90
2017-07-12T07:11:20.214Z,64.00
2017-07-12T07:13:46.324Z,63.80
2017-07-12T07:16:13.257Z,64.00
2017-07-12T07:18:39.370Z,63.80
2017-07-12T07:21:06.098Z,63.80
2017-07-12T07:23:32.239Z,63.90
2017-07-12T07:25:58.346Z,63.90
2017-07-12T07:28:24.477Z,63.80
2017-07-12T07:30:50.642Z,63.80
2017-07-12T07:33:16.756Z,63.80
2017-07-12T07:35:42.876Z,63.80
2017-07-12T07:38:12.261Z,63.80
2017-07-12T07:40:39.114Z,63.80
2017-07-12T07:43:05.256Z,63.80
2017-07-12T07:45:32.562Z,63.80
2017-07-12T07:47:58.677Z,63.80
2017-07-12T07:50:24.795Z,63.80
2017-07-12T07:52:53.949Z,63.80
2017-07-12T07:55:21.689Z,64.40
2017-07-12T07:57:47.838Z,63.70
2017-07-12T08:00:13.986Z,63.80
2017-07-12T08:02:40.132Z,63.80
2017-07-12T08:05:07.154Z,63.90
2017-07-12T08:07:33.729Z,63.70
2017-07-12T08:10:00.189Z,63.90
2017-07-12T08:12:33.187Z,63.20
2017-07-12T08:14:59.320Z,63.50
2017-07-12T08:17:25.438Z,63.80
2017-07-12T08:19:52.182Z,64.00
2017-07-12T08:22:18.301Z,64.10
2017-07-12T08:24:44.439Z,64.10
2017-07-12T08:27:10.584Z,64.20
2017-07-12T08:29:36.811Z,64.30
2017-07-12T08:32:02.961Z,64.40
2017-07-12T08:34:29.285Z,64.50
2017-07-12T08:36:55.389Z,64.70
2017-07-12T08:39:21.557Z,64.70
2017-07-12T08:41:48.084Z,64.60
2017-07-12T08:44:14.238Z,64.80
2017-07-12T08:46:40.345Z,64.80
2017-07-12T08:49:06.502Z,65.70
2017-07-12T08:51:32.714Z,67.20
2017-07-12T08:54:00.331Z,69.00
2017-07-12T08:56:26.497Z,69.30
2017-07-12T08:58:53.417Z,70.50
2017-07-12T09:01:20.274Z,70.60
2017-07-12T09:03:46.428Z,70.70
2017-07-12T09:06:13.452Z,71.50
2017-07-12T09:08:39.557Z,71.40
2017-07-12T09:11:05.681Z,70.00
2017-07-12T09:13:31.797Z,69.40
2017-07-12T09:15:57.906Z,69.10
2017-07-12T09:18:24.830Z,67.90
2017-07-12T09:20:50.965Z,67.80
2017-07-12T09:23:17.839Z,68.20
2017-07-12T09:33:02.919Z,67.90
2017-07-12T09:35:29.898Z,67.70
2017-07-12T09:37:56.020Z,67.70
2017-07-12T09:40:22.499Z,67.60
2017-07-12T09:42:49.376Z,67.70
2017-07-12T09:45:15.488Z,67.60
2017-07-12T09:47:42.357Z,67.40
2017-07-12T09:50:08.475Z,67.30
2017-07-12T09:52:35.331Z,67.20
2017-07-12T09:55:02.837Z,67.20
2017-07-12T09:57:28.932Z,67.30
2017-07-12T09:59:55.574Z,67.50
2017-07-12T10:02:21.906Z,67.60
2017-07-12T10:04:48.025Z,67.60
2017-07-12T10:07:17.183Z,67.10
2017-07-12T10:09:43.373Z,67.00
2017-07-12T10:12:09.516Z,67.10
2017-07-12T10:14:35.633Z,67.10
2017-07-12T10:17:01.746Z,67.00
2017-07-12T10:19:28.623Z,67.20
2017-07-12T10:21:54.762Z,67.20
2017-07-12T10:24:20.995Z,67.10
2017-07-12T10:26:47.125Z,67.20
2017-07-12T10:29:13.289Z,66.90
2017-07-12T10:31:39.446Z,67.00
2017-07-12T10:34:05.598Z,67.00
2017-07-12T10:36:32.451Z,67.10
2017-07-12T10:38:59.353Z,66.90
2017-07-12T10:41:25.461Z,66.90
2017-07-12T10:43:51.582Z,66.90
2017-07-12T10:46:17.795Z,66.90
2017-07-12T10:48:44.653Z,67.10
2017-07-12T10:51:10.781Z,67.10
2017-07-12T10:53:37.129Z,66.90
2017-07-12T10:56:05.493Z,66.90
2017-07-12T10:58:32.380Z,66.80
2017-07-12T11:00:58.533Z,66.80
2017-07-12T11:03:24.659Z,67.60
2017-07-12T11:05:50.788Z,67.20
2017-07-12T11:08:18.646Z,67.50
2017-07-12T11:10:44.790Z,67.40
2017-07-12T11:13:10.923Z,67.50
2017-07-12T11:15:37.066Z,67.30
2017-07-12T11:18:03.194Z,67.20
2017-07-12T11:20:29.323Z,66.90
2017-07-12T11:22:55.504Z,66.80
2017-07-12T11:25:21.692Z,66.80
2017-07-12T11:27:47.816Z,66.80
2017-07-12T11:30:14.552Z,66.70
2017-07-12T11:32:41.496Z,66.70
2017-07-12T11:35:07.729Z,66.80
2017-07-12T11:37:33.881Z,66.70
2017-07-12T11:40:00.021Z,66.80
2017-07-12T11:42:26.381Z,66.70
2017-07-12T11:44:52.506Z,66.60
2017-07-12T11:47:18.621Z,66.70
2017-07-12T11:49:44.773Z,66.70
2017-07-12T11:52:11.776Z,66.80
2017-07-12T11:54:37.903Z,66.90
2017-07-12T11:57:05.539Z,66.70
2017-07-12T11:59:33.335Z,67.30
2017-07-12T12:01:59.462Z,66.60
2017-07-12T12:04:25.587Z,66.60
2017-07-12T12:06:52.641Z,66.70
2017-07-12T12:09:20.698Z,66.70
2017-07-12T12:11:48.119Z,66.70
2017-07-12T12:14:14.866Z,66.60
2017-07-12T12:16:41.005Z,66.70
2017-07-12T12:19:07.145Z,66.60
2017-07-12T12:21:33.331Z,66.70
2017-07-12T12:23:59.737Z,66.60
2017-07-12T12:26:25.860Z,66.70
2017-07-12T12:28:52.687Z,66.70
2017-07-12T12:31:18.825Z,66.70
2017-07-12T12:33:45.001Z,66.70
2017-07-12T12:36:11.946Z,66.70
2017-07-12T12:38:38.839Z,66.60
2017-07-12T12:41:05.013Z,66.60
2017-07-12T12:43:32.152Z,66.70
2017-07-12T12:45:59.068Z,66.80
2017-07-12T12:48:25.297Z,66.80
2017-07-12T12:50:51.455Z,66.80
2017-07-12T12:53:17.651Z,66.80
2017-07-12T12:55:45.008Z,66.80
2017-07-12T12:58:12.715Z,66.60
2017-07-12T13:00:38.836Z,66.60
2017-07-12T13:03:04.986Z,66.70
2017-07-12T13:05:37.342Z,66.60
2017-07-12T13:08:03.499Z,66.60
2017-07-12T13:10:30.481Z,66.40
2017-07-12T13:12:57.378Z,66.50
2017-07-12T13:15:23.501Z,66.50
2017-07-12T13:17:49.660Z,66.50
2017-07-12T13:20:16.744Z,66.40
2017-07-12T13:22:42.874Z,66.30
2017-07-12T13:25:09.098Z,66.30
2017-07-12T13:27:35.219Z,66.30
2017-07-12T13:30:01.368Z,66.20
2017-07-12T13:32:27.524Z,66.40
2017-07-12T13:34:54.398Z,66.30
2017-07-12T13:37:20.540Z,66.30
2017-07-12T13:39:46.706Z,66.20
2017-07-12T13:42:13.407Z,65.90
2017-07-12T13:44:39.569Z,65.90
2017-07-12T13:47:05.695Z,65.70
2017-07-12T13:49:31.871Z,65.50
2017-07-12T13:51:58.759Z,66.10
2017-07-12T13:54:25.603Z,65.50
2017-07-12T13:56:52.101Z,65.60
2017-07-12T13:59:19.696Z,65.70
2017-07-12T14:01:45.814Z,65.70
2017-07-12T14:04:12.371Z,65.50
2017-07-12T14:06:39.222Z,65.50
2017-07-12T14:09:12.962Z,65.20
2017-07-12T14:11:40.420Z,65.20
2017-07-12T14:14:06.568Z,65.20
2017-07-12T14:16:32.726Z,64.90
2017-07-12T14:18:58.865Z,64.90
2017-07-12T14:21:25.011Z,64.90
2017-07-12T14:23:52.476Z,64.80
2017-07-12T14:26:19.331Z,64.70
2017-07-12T14:28:45.513Z,64.70
2017-07-12T14:31:11.672Z,64.50
2017-07-12T14:33:38.569Z,64.30
2017-07-12T14:36:11.715Z,64.40
2017-07-12T14:38:38.582Z,67.40
2017-07-12T14:41:05.466Z,69.80
2017-07-12T14:43:32.616Z,69.80
2017-07-12T14:45:58.737Z,70.30
2017-07-12T14:48:24.880Z,70.70
2017-07-12T14:50:51.040Z,70.30
2017-07-12T14:53:17.171Z,69.60
2017-07-12T14:55:43.321Z,69.10
2017-07-12T14:58:09.476Z,69.40
2017-07-12T15:00:37.055Z,68.50
2017-07-12T15:03:03.167Z,68.40
2017-07-12T15:05:29.297Z,68.60
2017-07-12T15:07:56.178Z,69.00
2017-07-12T15:10:22.324Z,69.00
2017-07-12T15:12:49.332Z,69.40
2017-07-12T15:15:15.524Z,69.70
2017-07-12T15:17:42.441Z,70.10
2017-07-12T15:20:08.601Z,69.90
2017-07-12T15:22:34.712Z,69.40
2017-07-12T15:25:00.855Z,69.80
2017-07-12T15:27:27.341Z,69.70
2017-07-12T15:29:54.412Z,70.40
2017-07-12T15:32:21.297Z,70.50
2017-07-12T15:34:47.450Z,70.30
2017-07-12T15:37:13.609Z,68.80
2017-07-12T15:39:39.742Z,68.00
2017-07-12T15:42:06.555Z,67.70
2017-07-12T15:44:32.700Z,67.20
2017-07-12T15:46:58.893Z,66.80
2017-07-12T15:49:25.335Z,66.50
2017-07-12T15:51:51.471Z,66.20
2017-07-12T15:54:17.613Z,66.20
2017-07-12T15:56:43.946Z,66.00
2017-07-12T15:59:10.089Z,65.80
2017-07-12T16:01:37.697Z,65.60
2017-07-12T16:04:05.441Z,65.70
2017-07-12T16:06:32.916Z,65.40
2017-07-12T16:08:59.621Z,65.20
2017-07-12T16:11:26.573Z,65.10
2017-07-12T16:13:54.105Z,65.00
2017-07-12T16:16:20.978Z,64.90
2017-07-12T16:18:47.111Z,64.80
2017-07-12T16:21:13.229Z,64.60
2017-07-12T16:23:40.105Z,64.80
2017-07-12T16:26:06.233Z,64.80
2017-07-12T16:28:32.369Z,64.70
2017-07-12T16:30:58.506Z,64.60
2017-07-12T16:33:25.698Z,64.40
2017-07-12T16:35:51.832Z,64.30
2017-07-12T16:38:17.982Z,64.30
2017-07-12T16:40:44.872Z,64.10
2017-07-12T16:43:10.992Z,64.00
2017-07-12T16:45:37.144Z,64.10
2017-07-12T16:48:03.305Z,64.90
2017-07-12T16:50:29.440Z,63.80
2017-07-12T16:52:55.571Z,63.80
2017-07-12T16:55:22.072Z,63.90
2017-07-12T16:57:48.203Z,63.50
2017-07-12T17:00:14.328Z,63.50
2017-07-12T17:02:41.972Z,63.70
2017-07-12T17:05:08.839Z,63.50
2017-07-12T17:07:34.994Z,63.40
2017-07-12T17:10:01.178Z,63.60
2017-07-12T17:12:27.956Z,63.50
2017-07-12T17:15:06.182Z,63.20
2017-07-12T17:17:32.309Z,63.40
2017-07-12T17:19:58.426Z,63.20
2017-07-12T17:22:24.587Z,63.80
2017-07-12T17:24:50.714Z,62.90
2017-07-12T17:27:16.831Z,63.00
2017-07-12T17:29:42.982Z,63.30
2017-07-12T17:32:09.117Z,63.00
2017-07-12T17:34:35.245Z,63.20
2017-07-12T17:37:01.772Z,63.10
2017-07-12T17:39:27.928Z,63.20
2017-07-12T17:41:54.613Z,63.20
2017-07-12T17:44:21.512Z,63.00
2017-07-12T17:46:47.648Z,63.00
2017-07-12T17:49:13.780Z,63.80
2017-07-12T17:51:39.934Z,63.10
2017-07-12T17:54:06.085Z,63.00
2017-07-12T17:56:32.967Z,63.00
2017-07-12T17:58:59.167Z,63.00
2017-07-12T18:01:26.599Z,63.00
2017-07-12T18:03:54.207Z,62.80
2017-07-12T18:06:21.604Z,62.80
2017-07-12T18:08:48.446Z,62.80
2017-07-12T18:11:15.159Z,62.80
2017-07-12T18:13:42.048Z,62.70
2017-07-12T18:16:20.302Z,62.60
2017-07-12T18:18:48.125Z,62.70
2017-07-12T18:21:14.250Z,62.60
2017-07-12T18:23:40.412Z,62.50
2017-07-12T18:26:06.913Z,62.40
2017-07-12T18:28:33.049Z,62.60
2017-07-12T18:30:59.183Z,62.40
2017-07-12T18:33:25.345Z,62.00
2017-07-12T18:35:51.614Z,62.20
2017-07-12T18:38:18.624Z,62.10
2017-07-12T18:40:45.664Z,62.00
2017-07-12T18:43:11.795Z,62.10
2017-07-12T18:45:37.936Z,61.90
2017-07-12T18:48:04.066Z,61.50
2017-07-12T18:50:30.452Z,61.70
2017-07-12T18:52:57.349Z,61.60
2017-07-12T18:55:23.493Z,61.50
2017-07-12T18:57:49.607Z,61.10
2017-07-12T19:00:15.718Z,61.10
2017-07-12T19:02:42.777Z,61.10
2017-07-12T19:05:10.286Z,61.10
2017-07-12T19:07:36.406Z,60.90
2017-07-12T19:10:02.562Z,60.60
2017-07-12T19:12:28.677Z,60.70
2017-07-12T19:14:54.789Z,60.60
2017-07-12T19:17:31.960Z,60.60
2017-07-12T19:19:58.141Z,60.30
2017-07-12T19:22:24.257Z,60.30
2017-07-12T19:24:51.181Z,59.90
2017-07-12T19:27:17.340Z,59.60
2017-07-12T19:29:43.475Z,59.70
2017-07-12T19:32:09.600Z,59.70
2017-07-12T19:34:35.736Z,59.90
2017-07-12T19:37:01.908Z,59.70
2017-07-12T19:39:28.095Z,59.80
2017-07-12T19:41:54.231Z,59.60
2017-07-12T19:44:20.700Z,59.70
2017-07-12T19:46:46.913Z,59.60
2017-07-12T19:49:13.046Z,59.60
2017-07-12T19:51:39.210Z,59.30
2017-07-12T19:54:05.448Z,59.20
2017-07-12T19:56:31.580Z,59.30
2017-07-12T19:58:58.466Z,58.70
2017-07-12T20:01:24.633Z,58.70
2017-07-12T20:03:50.769Z,58.80
2017-07-12T20:06:18.518Z,58.60
2017-07-12T20:08:45.163Z,58.40
2017-07-12T20:11:11.291Z,58.70
2017-07-12T20:13:37.424Z,57.80
2017-07-12T20:16:03.638Z,58.70
2017-07-12T20:18:31.131Z,58.60
2017-07-12T20:20:57.286Z,58.70
2017-07-12T20:23:24.839Z,58.10
2017-07-12T20:25:51.685Z,58.50
2017-07-12T20:28:17.831Z,58.40
2017-07-12T20:30:45.161Z,58.70
2017-07-12T20:33:11.339Z,58.40
2017-07-12T20:35:37.475Z,58.00
2017-07-12T20:38:03.636Z,58.40
2017-07-12T20:40:29.814Z,57.50
2017-07-12T20:42:56.719Z,58.00
2017-07-12T20:45:23.064Z,58.40
2017-07-12T20:47:49.177Z,58.40
2017-07-12T20:50:15.349Z,58.40
2017-07-12T20:52:42.796Z,57.90
2017-07-12T20:55:08.956Z,58.10
2017-07-12T20:57:35.062Z,58.20
2017-07-12T21:00:01.215Z,58.20
2017-07-12T21:02:27.469Z,58.70
2017-07-12T21:04:54.420Z,57.00
2017-07-12T21:07:21.965Z,56.90
2017-07-12T21:09:48.096Z,57.10
2017-07-12T21:12:14.291Z,56.10
2017-07-12T21:14:40.957Z,55.60
2017-07-12T21:17:07.140Z,55.50
2017-07-12T21:19:33.376Z,55.00
2017-07-12T21:21:59.931Z,55.90
2017-07-12T21:24:26.796Z,55.90
2017-07-12T21:26:53.685Z,56.00
2017-07-12T21:29:19.975Z,55.90
2017-07-12T21:31:46.118Z,56.60
2017-07-12T21:34:12.323Z,57.10
2017-07-12T21:36:39.729Z,57.60
2017-07-12T21:39:06.513Z,57.60
2017-07-12T21:41:32.720Z,58.10
2017-07-12T21:43:58.877Z,58.00
2017-07-12T21:46:25.552Z,57.80
2017-07-12T21:48:52.448Z,58.60
2017-07-12T21:51:18.731Z,58.60
2017-07-12T21:54:03.706Z,59.00
2017-07-12T21:56:49.172Z,59.10
2017-07-12T21:59:34.061Z,59.00
2017-07-12T22:02:19.152Z,59.20
2017-07-12T22:05:03.912Z,58.80
2017-07-12T22:07:49.951Z,58.90
2017-07-12T22:10:35.577Z,58.90
2017-07-12T22:13:21.126Z,58.80
2017-07-12T22:16:05.821Z,59.50
2017-07-12T22:18:50.816Z,59.40
2017-07-12T22:21:37.115Z,59.50
2017-07-12T22:24:22.696Z,60.00
2017-07-12T22:27:07.637Z,59.90
2017-07-12T22:29:52.419Z,60.00
2017-07-12T22:32:37.102Z,59.90
2017-07-12T22:35:21.861Z,60.00
2017-07-12T22:37:54.211Z,60.30
2017-07-12T22:40:26.427Z,60.40
2017-07-12T22:42:58.718Z,60.50
2017-07-12T22:45:24.870Z,60.40
2017-07-12T22:47:51.854Z,60.10
2017-07-12T22:50:18.001Z,60.10
2017-07-12T22:52:45.067Z,60.60
2017-07-12T22:55:11.996Z,61.00
2017-07-12T22:57:38.133Z,60.80
2017-07-12T23:00:04.395Z,60.90
2017-07-12T23:02:30.525Z,61.00
2017-07-12T23:04:56.666Z,61.20
2017-07-12T23:07:23.441Z,61.10
2017-07-12T23:09:51.005Z,61.00
2017-07-12T23:12:17.906Z,61.20
2017-07-12T23:14:44.077Z,61.00
2017-07-12T23:17:10.950Z,61.90
2017-07-12T23:19:37.092Z,61.10
2017-07-12T23:22:04.143Z,60.60
2017-07-12T23:24:30.290Z,61.50
2017-07-12T23:26:56.436Z,61.60
2017-07-12T23:29:22.645Z,61.60
2017-07-12T23:31:48.813Z,61.80
2017-07-12T23:34:14.975Z,61.70
2017-07-12T23:36:41.258Z,61.80
2017-07-12T23:39:07.444Z,61.90
2017-07-12T23:41:33.616Z,61.90
2017-07-12T23:46:31.779Z,62.10
2017-07-12T23:48:57.931Z,62.10
2017-07-12T23:51:24.089Z,62.10
2017-07-12T23:53:50.276Z,62.20
2017-07-12T23:56:16.437Z,62.20
2017-07-12T23:58:42.597Z,62.30
